Time;durP1;ratioP1;P1;durP2;ratioP2;P2;SDS_P1;SDS_P2;PMS_P1;PMS_P2;Temp;Humidity;BMP_temperature;BMP_pressure;BME280_temperature;BME280_humidity;BME280_pressure;Samples;Min_cycle;Max_cycle;Signal;HPM_P1;HPM_P2
2023/05/31 00:01:30;;;;;;;7.23;2.30;;;;;;;6.99;82.66;97275.06;10497146;28;20202;-64
2023/05/31 00:06:30;;;;;;;5.27;2.20;;;;;;;6.98;82.65;97271.59;10496653;28;20254;-65
2023/05/31 00:11:31;;;;;;;4.77;2.10;;;;;;;6.90;83.16;97272.22;10496633;28;20226;-64
2023/05/31 00:16:31;;;;;;;3.23;2.30;;;;;;;6.81;83.91;97283.34;10496387;28;20226;-64
2023/05/31 00:21:31;;;;;;;5.60;2.27;;;;;;;6.66;85.31;97282.78;10495968;28;20206;-64
2023/05/31 00:26:32;;;;;;;4.47;2.10;;;;;;;6.48;86.92;97284.16;10496034;28;20199;-64
2023/05/31 00:31:32;;;;;;;6.73;2.33;;;;;;;6.35;88.44;97290.28;10495665;28;20307;-63
2023/05/31 00:36:33;;;;;;;4.37;2.00;;;;;;;6.27;89.01;97299.63;10495292;28;20219;-64
2023/05/31 00:41:33;;;;;;;2.67;2.20;;;;;;;6.07;90.67;97297.56;10495403;28;20230;-65
2023/05/31 00:46:37;;;;;;;2.47;1.83;;;;;;;6.03;92.06;97293.53;10494939;28;20207;-64
2023/05/31 00:51:38;;;;;;;5.13;2.17;;;;;;;6.07;93.17;97302.75;10488091;28;20671;-64
2023/05/31 00:56:39;;;;;;;4.00;2.20;;;;;;;6.02;92.53;97288.47;10487431;28;20352;-64
2023/05/31 01:01:40;;;;;;;5.50;2.00;;;;;;;5.93;93.59;97289.09;10494597;28;20202;-64
2023/05/31 01:06:41;;;;;;;3.70;2.23;;;;;;;5.88;94.82;97292.88;10499317;22;20243;-67
2023/05/31 01:11:53;;;;;;;2.10;1.77;;;;;;;5.86;94.72;97292.13;10491438;28;20191;-67
2023/05/31 01:17:01;;;;;;;2.70;1.93;;;;;;;5.96;95.22;97294.91;10509820;28;20227;-67
2023/05/31 01:22:27;;;;;;;5.77;1.70;;;;;;;6.00;93.78;97283.38;10476542;28;20186;-67
2023/05/31 01:27:28;;;;;;;3.87;2.10;;;;;;;5.81;95.37;97285.63;10494013;28;20582;-66
2023/05/31 01:32:28;;;;;;;4.27;2.40;;;;;;;5.72;96.79;97282.75;10494082;28;20217;-67
2023/05/31 01:37:29;;;;;;;4.07;2.13;;;;;;;5.70;97.45;97284.63;10493821;28;20728;-67
2023/05/31 01:42:29;;;;;;;5.03;2.50;;;;;;;5.71;97.75;97275.91;10493854;28;20205;-67
2023/05/31 01:47:30;;;;;;;4.87;2.40;;;;;;;5.67;97.85;97286.63;10497370;28;20215;-67
2023/05/31 01:52:34;;;;;;;3.63;2.10;;;;;;;5.68;98.14;97283.94;10500882;28;20669;-67
2023/05/31 01:57:37;;;;;;;7.53;2.30;;;;;;;5.72;97.83;97285.34;10484223;28;20219;-67
2023/05/31 02:02:41;;;;;;;4.87;1.93;;;;;;;5.64;97.67;97282.47;10483874;28;20274;-66
2023/05/31 02:07:43;;;;;;;4.00;2.23;;;;;;;5.52;99.51;97285.97;10500089;28;20230;-66
2023/05/31 02:12:44;;;;;;;3.17;2.10;;;;;;;5.50;99.25;97282.66;10500192;28;20551;-67
2023/05/31 02:17:45;;;;;;;4.07;2.20;;;;;;;5.46;99.71;97286.41;10499613;28;20306;-67
2023/05/31 02:22:45;;;;;;;3.73;2.00;;;;;;;5.46;100.00;97291.63;10499863;28;20183;-67
2023/05/31 02:27:46;;;;;;;5.03;2.10;;;;;;;5.41;100.00;97298.91;10499456;28;20207;-66
2023/05/31 02:32:46;;;;;;;2.10;1.90;;;;;;;5.38;100.00;97294.75;10500606;28;20219;-65
2023/05/31 02:37:46;;;;;;;5.00;2.20;;;;;;;5.35;100.00;97295.78;10500417;28;20277;-67
2023/05/31 02:42:47;;;;;;;4.33;2.37;;;;;;;5.35;100.00;97295.78;10500753;28;20183;-66
2023/05/31 02:47:47;;;;;;;2.93;2.37;;;;;;;5.33;100.00;97295.09;10487685;28;20208;-67
2023/05/31 02:52:49;;;;;;;6.30;1.80;;;;;;;5.29;100.00;97293.63;10457199;28;20684;-66
2023/05/31 02:57:56;;;;;;;5.13;2.50;;;;;;;5.25;100.00;97299.97;10456868;28;20226;-66
2023/05/31 03:02:57;;;;;;;3.30;2.00;;;;;;;5.19;100.00;97310.81;10447028;28;20191;-67
2023/05/31 03:08:09;;;;;;;4.13;2.17;;;;;;;5.27;100.00;97313.72;10414514;28;20235;-67
2023/05/31 03:13:09;;;;;;;2.83;1.80;;;;;;;5.26;100.00;97313.81;10415484;28;20188;-67
2023/05/31 03:18:10;;;;;;;6.07;2.00;;;;;;;5.17;100.00;97310.09;10414801;28;20236;-66
2023/05/31 03:23:12;;;;;;;3.57;2.00;;;;;;;5.14;100.00;97318.09;10414810;28;20278;-66
2023/05/31 03:28:13;;;;;;;6.30;2.60;;;;;;;5.14;100.00;97323.28;10414746;28;20777;-66
2023/05/31 03:33:14;;;;;;;3.23;2.30;;;;;;;5.05;100.00;97329.13;10414329;28;20558;-67
2023/05/31 03:38:15;;;;;;;4.27;2.60;;;;;;;5.00;100.00;97322.47;10414193;28;20675;-67
2023/05/31 03:43:15;;;;;;;8.20;2.57;;;;;;;5.10;100.00;97316.66;10415174;28;20200;-66
2023/05/31 03:48:17;;;;;;;4.93;2.37;;;;;;;5.04;100.00;97325.72;10414010;28;20227;-67
2023/05/31 03:53:19;;;;;;;5.40;2.27;;;;;;;5.25;100.00;97318.16;10413924;28;20193;-67
2023/05/31 03:58:20;;;;;;;6.20;2.50;;;;;;;5.34;100.00;97309.75;10412934;28;20601;-67
2023/05/31 04:03:20;;;;;;;8.03;2.60;;;;;;;5.39;100.00;97312.03;10413323;28;20193;-67
2023/05/31 04:08:23;;;;;;;3.73;2.33;;;;;;;5.57;100.00;97311.63;10411772;28;20256;-67
2023/05/31 04:13:24;;;;;;;5.73;2.30;;;;;;;5.96;100.00;97307.09;10413983;28;20193;-67
2023/05/31 04:18:24;;;;;;;4.03;2.37;;;;;;;6.24;99.17;97295.47;10412513;28;20302;-67
2023/05/31 04:23:25;;;;;;;6.23;2.27;;;;;;;6.57;97.24;97293.84;10413534;28;20242;-68
2023/05/31 04:28:29;;;;;;;7.43;2.50;;;;;;;6.70;94.67;97289.38;10412337;28;20247;-67
2023/05/31 04:33:29;;;;;;;11.00;3.67;;;;;;;6.84;94.90;97303.13;10411543;28;20278;-67
2023/05/31 04:38:32;;;;;;;5.33;2.30;;;;;;;7.17;93.29;97302.28;10411843;28;20302;-67
2023/05/31 04:43:33;;;;;;;7.00;2.30;;;;;;;7.38;91.98;97301.50;10411125;28;20246;-66
2023/05/31 04:48:34;;;;;;;5.57;2.20;;;;;;;7.64;91.84;97307.25;10410997;28;20247;-66
2023/05/31 04:53:35;;;;;;;4.17;2.37;;;;;;;7.90;90.85;97299.94;10411234;28;20192;-66
2023/05/31 04:58:36;;;;;;;6.80;2.20;;;;;;;8.17;89.37;97286.38;10411998;28;20225;-67
2023/05/31 05:03:36;;;;;;;7.10;2.90;;;;;;;8.45;88.01;97278.91;10410921;28;20189;-67
2023/05/31 05:08:37;;;;;;;3.73;2.30;;;;;;;8.84;87.15;97288.72;10410669;28;20238;-67
2023/05/31 05:13:38;;;;;;;6.67;2.80;;;;;;;9.06;84.93;97272.81;10410517;28;20189;-66
2023/05/31 05:18:38;;;;;;;4.17;2.57;;;;;;;9.37;84.72;97275.41;10411751;28;20219;-66
2023/05/31 05:23:39;;;;;;;10.20;2.63;;;;;;;9.60;83.72;97270.75;10409466;28;20347;-67
2023/05/31 05:28:39;;;;;;;3.93;2.43;;;;;;;10.03;83.17;97273.94;10410422;28;20809;-67
2023/05/31 05:33:40;;;;;;;7.20;2.87;;;;;;;10.33;81.05;97269.50;10409569;28;20265;-66
2023/05/31 05:38:41;;;;;;;5.50;2.57;;;;;;;10.77;80.40;97267.16;10409588;28;20805;-66
2023/05/31 05:43:42;;;;;;;6.13;2.80;;;;;;;11.20;78.63;97251.78;10409417;28;20228;-66
2023/05/31 05:48:46;;;;;;;4.67;2.83;;;;;;;11.66;77.35;97251.75;10409235;28;20255;-67
2023/05/31 05:53:48;;;;;;;3.55;2.45;;;;;;;12.34;75.53;97240.66;10409725;28;20193;-66
2023/05/31 05:58:50;;;;;;;10.35;2.47;;;;;;;12.87;72.28;97217.78;10409288;28;20220;-66
2023/05/31 06:04:14;;;;;;;8.10;2.45;;;;;;;13.89;68.43;97193.97;10409562;28;20701;-66
2023/05/31 06:09:14;;;;;;;7.22;2.20;;;;;;;14.72;60.89;97097.06;10420048;28;20319;-66
2023/05/31 06:14:15;;;;;;;6.72;1.92;;;;;;;15.87;59.49;97107.59;10443397;28;20196;-66
2023/05/31 06:19:20;;;;;;;8.05;2.20;;;;;;;16.39;55.46;97071.53;10450017;28;20714;-66
2023/05/31 06:24:20;;;;;;;5.35;2.10;;;;;;;17.91;51.23;97027.34;10449967;28;20188;-66
2023/05/31 06:29:22;;;;;;;5.85;1.85;;;;;;;18.47;49.65;97029.03;10449671;28;20247;-67
2023/05/31 06:34:31;;;;;;;7.53;2.45;;;;;;;18.81;47.06;96999.94;10455661;28;20643;-67
2023/05/31 06:39:32;;;;;;;3.05;2.08;;;;;;;19.34;47.13;97025.72;10457556;28;20279;-67
2023/05/31 06:44:33;;;;;;;7.72;2.03;;;;;;;21.11;42.11;96974.16;10457377;28;20978;-68
2023/05/31 06:49:42;;;;;;;9.73;2.30;;;;;;;20.55;40.97;96939.28;10457354;28;20192;-67
2023/05/31 06:55:06;;;;;;;3.42;1.50;;;;;;;22.48;40.76;96996.38;10447796;28;20232;-67
2023/05/31 07:00:08;;;;;;;8.65;2.03;;;;;;;22.51;39.43;96974.56;10452169;28;20215;-67
2023/05/31 07:05:08;;;;;;;3.80;1.80;;;;;;;22.20;39.96;96973.69;10441427;23;20264;-67
2023/05/31 07:10:09;;;;;;;4.35;1.50;;;;;;;23.26;37.21;96951.88;10471417;28;20262;-66
2023/05/31 07:15:10;;;;;;;5.75;1.98;;;;;;;21.40;40.67;96972.66;10480097;28;20215;-66
2023/05/31 07:20:11;;;;;;;5.43;1.95;;;;;;;22.32;39.49;96971.94;10478978;28;20187;-66
2023/05/31 07:25:12;;;;;;;4.03;1.98;;;;;;;22.58;37.74;96951.25;10496779;28;20241;-68
2023/05/31 07:30:12;;;;;;;5.13;1.90;;;;;;;22.95;37.97;96965.28;10497238;28;20199;-66
2023/05/31 07:35:13;;;;;;;6.03;1.83;;;;;;;22.16;39.11;96976.00;10523199;28;20221;-66
2023/05/31 07:40:15;;;;;;;6.10;1.75;;;;;;;21.96;38.45;96949.56;10537486;28;20190;-67
2023/05/31 07:45:16;;;;;;;3.47;1.67;;;;;;;22.33;37.63;96935.34;10537284;28;20199;-68
2023/05/31 07:50:16;;;;;;;5.93;1.60;;;;;;;22.57;37.43;96930.94;10532063;28;20715;-69
2023/05/31 07:55:17;;;;;;;10.50;2.28;;;;;;;22.88;38.07;96956.56;10502877;28;20218;-68
2023/05/31 08:00:18;;;;;;;7.88;2.03;;;;;;;22.36;38.63;96950.94;10495030;28;20207;-68
2023/05/31 08:05:19;;;;;;;5.35;1.88;;;;;;;22.53;39.28;96980.50;10495135;28;20256;-67
2023/05/31 08:10:19;;;;;;;8.73;2.15;;;;;;;22.50;37.32;96922.22;10504836;28;20253;-67
2023/05/31 08:15:20;;;;;;;4.68;1.70;;;;;;;23.06;36.70;96928.94;10536747;28;20218;-67
2023/05/31 08:20:20;;;;;;;9.13;2.03;;;;;;;23.42;36.50;96919.09;10536338;28;20660;-67
2023/05/31 08:25:22;;;;;;;6.80;2.25;;;;;;;22.33;37.28;96900.66;10536509;28;20183;-67
2023/05/31 08:30:22;;;;;;;4.63;2.25;;;;;;;23.05;36.70;96916.63;10536364;28;20195;-67
2023/05/31 08:35:22;;;;;;;3.97;1.70;;;;;;;22.46;37.50;96921.03;10535494;28;20222;-68
2023/05/31 08:40:23;;;;;;;9.68;1.88;;;;;;;24.07;37.16;96976.13;10536061;28;20194;-67
2023/05/31 08:45:28;;;;;;;8.15;2.00;;;;;;;23.83;36.76;96941.38;10534201;28;20206;-69
2023/05/31 08:50:29;;;;;;;6.25;1.88;;;;;;;24.01;34.23;96886.09;10518155;28;20228;-67
2023/05/31 08:55:29;;;;;;;7.88;1.95;;;;;;;24.01;36.59;96947.63;10535189;28;20320;-67
2023/05/31 09:00:31;;;;;;;5.07;1.67;;;;;;;24.44;36.92;96977.66;10516087;28;20244;-68
2023/05/31 09:05:31;;;;;;;6.28;1.52;;;;;;;24.79;35.98;96947.25;10475324;28;20284;-68
2023/05/31 09:10:32;;;;;;;6.35;1.80;;;;;;;25.35;34.83;96936.66;10495073;28;20209;-67
2023/05/31 09:15:37;;;;;;;5.25;1.73;;;;;;;26.08;32.13;96885.53;10514855;28;20222;-68
2023/05/31 09:20:37;;;;;;;4.05;1.75;;;;;;;26.37;31.85;96875.38;10534572;28;20198;-67
2023/05/31 09:25:44;;;;;;;5.70;1.80;;;;;;;25.88;33.17;96892.28;10534549;28;20574;-68
2023/05/31 09:30:45;;;;;;;4.97;1.60;;;;;;;26.11;32.14;96869.75;10534648;28;20424;-68
2023/05/31 09:35:56;;;;;;;5.45;1.80;;;;;;;25.60;32.65;96866.44;10515852;28;20665;-68
2023/05/31 09:41:10;;;;;;;10.48;2.05;;;;;;;24.25;36.24;96915.47;10533939;28;20229;-68
2023/05/31 09:46:12;;;;;;;4.90;1.70;;;;;;;25.04;34.72;96906.66;10532623;28;20214;-67
2023/05/31 09:51:15;;;;;;;5.30;1.38;;;;;;;24.47;33.49;96859.34;10534281;28;20244;-67
2023/05/31 09:56:18;;;;;;;3.42;1.83;;;;;;;24.31;36.16;96920.66;10533590;28;20368;-67
2023/05/31 10:01:19;;;;;;;3.83;1.88;;;;;;;25.44;33.96;96894.94;10515436;28;20191;-68
2023/05/31 10:06:21;;;;;;;7.78;1.70;;;;;;;25.45;33.41;96883.13;10533620;28;20839;-68
2023/05/31 10:11:25;;;;;;;3.50;1.70;;;;;;;25.39;34.25;96892.16;10541775;28;20190;-67
2023/05/31 10:16:26;;;;;;;3.45;1.42;;;;;;;26.24;32.74;96886.53;10500501;28;20729;-69
2023/05/31 10:21:27;;;;;;;5.68;1.55;;;;;;;24.32;34.99;96865.22;10531617;28;20190;-68
2023/05/31 10:26:41;;;;;;;5.38;1.67;;;;;;;25.76;33.52;96886.22;10539967;28;20553;-70
2023/05/31 10:31:47;;;;;;;4.70;1.58;;;;;;;26.17;33.10;96876.78;10524868;28;20191;-69
2023/05/31 10:36:49;;;;;;;5.28;1.88;;;;;;;26.11;33.09;96877.81;10504818;28;20219;-68
2023/05/31 10:41:55;;;;;;;3.08;1.90;;;;;;;24.49;33.02;96799.13;10513795;28;20587;-68
2023/05/31 10:47:01;;;;;;;7.90;2.20;;;;;;;23.18;34.66;96791.88;10497138;28;20255;-65
2023/05/31 10:52:05;;;;;;;4.32;1.88;;;;;;;24.83;33.01;96811.72;10502906;28;20191;-66
2023/05/31 10:57:07;;;;;;;5.53;1.85;;;;;;;25.65;34.12;96885.25;10512157;28;20609;-66
2023/05/31 11:02:09;;;;;;;2.67;1.60;;;;;;;26.25;33.60;96888.94;10538571;28;20194;-66
2023/05/31 11:07:21;;;;;;;4.43;1.80;;;;;;;27.13;30.68;96817.09;10538815;28;20235;-66
2023/05/31 11:12:32;;;;;;;5.43;1.90;;;;;;;27.69;32.27;96873.91;10537802;28;20191;-66
2023/05/31 11:17:41;;;;;;;5.10;2.03;;;;;;;28.91;29.97;96844.00;10495622;28;20313;-67
2023/05/31 11:22:41;;;;;;;4.82;1.42;;;;;;;27.23;31.13;96807.22;10501725;28;20192;-67
2023/05/31 11:27:41;;;;;;;7.40;1.77;;;;;;;27.22;31.61;96818.22;10478073;28;20223;-67
2023/05/31 11:32:42;;;;;;;4.00;1.80;;;;;;;27.47;31.68;96839.09;10508125;28;20480;-67
2023/05/31 11:37:43;;;;;;;5.57;1.85;;;;;;;27.70;31.95;96848.63;10532401;28;20218;-67
2023/05/31 11:42:45;;;;;;;3.05;1.70;;;;;;;28.41;30.68;96835.63;10503507;28;20221;-67
2023/05/31 11:47:48;;;;;;;3.90;1.85;;;;;;;29.16;28.63;96786.50;10521221;28;20210;-67
2023/05/31 11:52:48;;;;;;;4.10;1.58;;;;;;;28.38;30.33;96815.41;10494471;28;20202;-66
2023/05/31 11:57:51;;;;;;;4.25;1.77;;;;;;;26.93;30.82;96775.59;10493139;28;20228;-67
2023/05/31 12:02:53;;;;;;;7.07;1.90;;;;;;;28.43;30.26;96812.69;10524759;28;20561;-67
2023/05/31 12:07:55;;;;;;;5.72;1.77;;;;;;;28.45;31.89;96869.03;10509697;28;20346;-67
2023/05/31 12:12:57;;;;;;;7.50;1.80;;;;;;;28.39;30.06;96794.66;10493953;28;20233;-67
2023/05/31 12:17:58;;;;;;;5.07;1.65;;;;;;;30.56;25.61;96725.19;10493871;28;20227;-67
2023/05/31 12:23:10;;;;;;;4.57;1.80;;;;;;;29.84;25.31;96664.44;10493597;28;20605;-69
2023/05/31 12:28:11;;;;;;;8.13;1.95;;;;;;;28.51;29.83;96772.81;10509317;28;20214;-67
2023/05/31 12:33:12;;;;;;;4.07;1.73;;;;;;;28.83;29.95;96783.31;10484824;28;20191;-71
2023/05/31 12:38:12;;;;;;;7.00;1.60;;;;;;;29.27;29.02;96754.91;10509543;28;21023;-69
2023/05/31 12:43:18;;;;;;;2.85;1.90;;;;;;;28.87;29.26;96756.63;10502041;28;20569;-71
2023/05/31 12:48:22;;;;;;;6.43;1.55;;;;;;;29.78;27.73;96748.44;10493044;28;20199;-69
2023/05/31 12:53:25;;;;;;;3.55;1.50;;;;;;;29.93;27.40;96734.06;10491845;28;20183;-68
2023/05/31 12:58:25;;;;;;;5.30;1.75;;;;;;;29.40;29.15;96761.59;10494147;28;20211;-69
2023/05/31 13:03:25;;;;;;;7.33;1.70;;;;;;;30.65;27.45;96755.13;10492280;28;20199;-66
2023/05/31 13:08:26;;;;;;;5.87;2.10;;;;;;;30.48;28.32;96783.41;10523419;22;20567;-68
2023/05/31 13:13:26;;;;;;;5.00;1.70;;;;;;;28.89;28.44;96711.31;10532190;28;20463;-68
2023/05/31 13:18:27;;;;;;;3.87;1.80;;;;;;;29.51;28.48;96728.06;10533250;28;20492;-69
2023/05/31 13:23:27;;;;;;;5.03;1.85;;;;;;;30.50;27.21;96729.03;10533602;28;20536;-68
2023/05/31 13:28:27;;;;;;;6.37;1.80;;;;;;;30.85;26.53;96722.47;10533008;28;20930;-68
2023/05/31 13:33:29;;;;;;;7.17;1.70;;;;;;;32.29;24.69;96720.56;10529716;28;20440;-68
2023/05/31 13:38:30;;;;;;;4.93;1.73;;;;;;;31.43;24.19;96640.28;10491277;28;20538;-68
2023/05/31 13:43:30;;;;;;;6.15;1.65;;;;;;;31.61;27.38;96755.16;10489996;28;20310;-68
2023/05/31 13:48:32;;;;;;;6.38;2.00;;;;;;;34.20;23.14;96725.69;10497035;28;20583;-68
2023/05/31 13:53:32;;;;;;;2.97;1.75;;;;;;;33.68;22.71;96657.34;10533360;28;20197;-68
2023/05/31 13:58:32;;;;;;;4.83;1.57;;;;;;;33.53;22.53;96612.31;10534037;28;20596;-68
2023/05/31 14:03:34;;;;;;;4.50;1.70;;;;;;;35.05;22.27;96694.94;10532505;28;20478;-68
2023/05/31 14:08:34;;;;;;;5.05;1.70;;;;;;;34.80;21.07;96620.25;10533450;28;20784;-68
2023/05/31 14:13:35;;;;;;;4.93;1.55;;;;;;;33.99;21.87;96610.41;10533869;28;20205;-68
2023/05/31 14:18:35;;;;;;;3.23;1.87;;;;;;;34.84;21.55;96653.88;10533268;28;20221;-68
2023/05/31 14:23:35;;;;;;;6.10;1.70;;;;;;;34.76;21.24;96639.13;10492713;28;20456;-68
2023/05/31 14:28:36;;;;;;;9.37;1.73;;;;;;;34.74;21.06;96616.84;10491279;28;20219;-69
2023/05/31 14:33:39;;;;;;;6.13;1.93;;;;;;;35.09;20.92;96619.66;10491609;28;20293;-69
2023/05/31 14:38:40;;;;;;;2.97;1.60;;;;;;;34.35;20.60;96574.97;10516840;28;20226;-69
2023/05/31 14:43:40;;;;;;;3.77;1.63;;;;;;;34.32;22.07;96612.84;10491132;28;20260;-69
2023/05/31 14:48:41;;;;;;;3.23;1.90;;;;;;;33.30;21.89;96557.97;10491287;28;20207;-68
2023/05/31 14:53:41;;;;;;;5.18;1.67;;;;;;;33.84;22.43;96619.75;10501539;28;20299;-68
2023/05/31 14:58:45;;;;;;;4.37;1.80;;;;;;;33.65;22.21;96596.25;10508014;28;20226;-68
2023/05/31 15:03:45;;;;;;;5.35;1.70;;;;;;;35.83;20.63;96633.50;10535887;28;20209;-68
2023/05/31 15:08:46;;;;;;;3.40;1.60;;;;;;;35.07;20.18;96572.91;10538282;28;20226;-68
2023/05/31 15:13:46;;;;;;;2.80;1.40;;;;;;;33.97;21.14;96548.22;10539578;28;20266;-68
2023/05/31 15:18:46;;;;;;;3.97;1.60;;;;;;;35.91;19.02;96574.63;10539350;28;20237;-68
2023/05/31 15:23:47;;;;;;;2.63;1.55;;;;;;;34.44;19.08;96498.81;10539383;28;20446;-67
2023/05/31 15:28:48;;;;;;;6.53;1.55;;;;;;;33.34;22.17;96552.72;10538946;28;20202;-67
2023/05/31 15:33:48;;;;;;;2.30;1.60;;;;;;;32.41;21.80;96519.44;10536188;28;20190;-68
2023/05/31 15:38:49;;;;;;;4.60;1.70;;;;;;;34.29;20.49;96560.69;10501930;28;20308;-67
2023/05/31 15:43:50;;;;;;;2.97;1.85;;;;;;;32.10;22.38;96495.66;10538482;28;20436;-67
2023/05/31 15:48:51;;;;;;;8.00;2.10;;;;;;;30.79;24.46;96534.28;10538366;28;20206;-68
2023/05/31 15:53:51;;;;;;;3.45;1.85;;;;;;;29.56;24.52;96482.41;10537436;28;20511;-66
2023/05/31 15:58:51;;;;;;;2.93;1.70;;;;;;;29.28;26.01;96535.25;10496140;28;20234;-67
2023/05/31 16:03:52;;;;;;;3.92;2.00;;;;;;;27.90;26.91;96494.34;10495418;28;20438;-67
2023/05/31 16:08:55;;;;;;;4.37;2.10;;;;;;;27.16;28.60;96536.88;10495395;28;20724;-67
2023/05/31 16:13:55;;;;;;;4.40;1.60;;;;;;;27.33;28.40;96548.22;10557895;28;20451;-67
2023/05/31 16:18:55;;;;;;;9.30;2.30;;;;;;;25.24;28.70;96461.84;10579378;28;20633;-67
2023/05/31 16:23:56;;;;;;;2.60;1.80;;;;;;;25.67;31.24;96568.41;10579078;28;20806;-67
2023/05/31 16:28:56;;;;;;;6.93;1.90;;;;;;;26.02;29.29;96521.44;10578646;28;20889;-67
2023/05/31 16:33:56;;;;;;;7.60;1.93;;;;;;;25.37;31.75;96572.47;10578817;28;20949;-67
2023/05/31 16:38:59;;;;;;;4.57;2.10;;;;;;;25.58;31.97;96587.66;10576877;28;21006;-67
2023/05/31 16:43:59;;;;;;;6.68;2.15;;;;;;;25.46;31.30;96570.94;10578107;28;20440;-66
2023/05/31 16:49:00;;;;;;;5.65;1.90;;;;;;;25.16;32.84;96592.88;10578505;28;20232;-66
2023/05/31 16:54:00;;;;;;;3.63;2.00;;;;;;;24.62;32.46;96562.28;10579028;28;20217;-66
2023/05/31 16:59:00;;;;;;;3.88;1.92;;;;;;;24.94;33.50;96612.47;10578310;28;20222;-66
2023/05/31 17:04:01;;;;;;;3.90;1.95;;;;;;;24.36;33.74;96596.78;10578575;28;20190;-67
2023/05/31 17:09:01;;;;;;;7.03;1.83;;;;;;;24.18;33.08;96573.78;10578491;28;20233;-66
2023/05/31 17:14:02;;;;;;;4.60;1.95;;;;;;;24.05;34.16;96600.88;10578375;28;20181;-66
2023/05/31 17:19:02;;;;;;;4.57;2.17;;;;;;;23.46;34.57;96583.38;10578394;28;20225;-66
2023/05/31 17:24:03;;;;;;;2.58;1.88;;;;;;;23.26;37.65;96650.66;10557663;28;20199;-66
2023/05/31 17:29:03;;;;;;;5.40;2.35;;;;;;;23.02;36.51;96615.16;10513603;28;20223;-66
2023/05/31 17:34:04;;;;;;;3.95;2.10;;;;;;;23.39;36.58;96644.19;10512715;28;20190;-66
2023/05/31 17:39:05;;;;;;;9.50;2.47;;;;;;;23.15;35.54;96609.56;10493213;28;20288;-66
2023/05/31 17:44:05;;;;;;;7.15;2.05;;;;;;;23.09;37.57;96653.28;10512089;28;20703;-66
2023/05/31 17:49:05;;;;;;;6.07;1.90;;;;;;;22.70;36.98;96618.28;10512109;28;20285;-66
2023/05/31 17:54:06;;;;;;;4.28;1.88;;;;;;;22.33;38.62;96650.59;10514237;28;20191;-66
2023/05/31 17:59:08;;;;;;;4.80;2.50;;;;;;;21.47;39.39;96636.75;10526155;28;20229;-66
2023/05/31 18:04:08;;;;;;;10.05;2.00;;;;;;;20.48;42.88;96706.97;10535159;28;20194;-66
2023/05/31 18:09:08;;;;;;;5.15;1.90;;;;;;;20.08;44.83;96728.59;10530820;28;20231;-66
2023/05/31 18:14:09;;;;;;;6.07;2.33;;;;;;;20.54;46.23;96783.28;10495907;28;20188;-66
2023/05/31 18:19:09;;;;;;;3.38;1.77;;;;;;;20.36;48.33;96820.47;10505550;28;20731;-65
2023/05/31 18:24:11;;;;;;;5.97;2.15;;;;;;;20.10;49.17;96817.75;10509099;28;20692;-65
2023/05/31 18:29:11;;;;;;;6.25;2.05;;;;;;;19.93;50.82;96845.91;10509437;28;20631;-66
2023/05/31 18:34:11;;;;;;;5.28;1.98;;;;;;;19.85;51.29;96833.69;10499996;28;20187;-65
2023/05/31 18:39:12;;;;;;;4.57;2.03;;;;;;;18.74;54.81;96869.84;10499890;28;20261;-65
2023/05/31 18:44:12;;;;;;;6.18;2.30;;;;;;;17.56;57.46;96872.81;10499808;28;20196;-66
2023/05/31 18:49:13;;;;;;;5.72;2.60;;;;;;;16.97;59.66;96880.22;10499518;28;20302;-65
2023/05/31 18:54:15;;;;;;;2.70;1.92;;;;;;;16.63;60.05;96851.84;10499582;28;20202;-65
2023/05/31 18:59:16;;;;;;;5.53;1.80;;;;;;;16.13;62.25;96881.69;10498969;28;20316;-65
2023/05/31 19:04:16;;;;;;;7.05;2.17;;;;;;;15.86;62.70;96867.38;10499081;28;20282;-65
2023/05/31 19:09:16;;;;;;;3.67;2.50;;;;;;;15.63;63.52;96865.66;10515101;23;20243;-65
2023/05/31 19:14:17;;;;;;;8.50;4.78;;;;;;;15.66;62.96;96859.19;10496198;28;20196;-64
2023/05/31 19:19:18;;;;;;;6.85;3.15;;;;;;;15.57;63.93;96865.56;10498195;28;20231;-66
2023/05/31 19:24:18;;;;;;;5.32;3.13;;;;;;;15.33;65.51;96881.53;10498340;28;20191;-64
2023/05/31 19:29:19;;;;;;;3.92;3.35;;;;;;;15.25;66.87;96894.81;10497831;28;20261;-64
2023/05/31 19:34:19;;;;;;;7.35;2.80;;;;;;;14.97;66.97;96887.50;10497767;28;20240;-65
2023/05/31 19:39:20;;;;;;;7.05;3.22;;;;;;;14.83;67.32;96882.22;10496196;28;20261;-64
2023/05/31 19:44:20;;;;;;;5.05;2.92;;;;;;;14.65;67.26;96875.44;10497145;28;20199;-64
2023/05/31 19:49:21;;;;;;;5.07;2.60;;;;;;;14.54;67.42;96870.56;10497214;28;20207;-64
2023/05/31 19:54:22;;;;;;;4.90;2.20;;;;;;;14.45;67.41;96873.25;10496997;28;20179;-64
2023/05/31 19:59:23;;;;;;;5.32;2.20;;;;;;;14.32;68.08;96874.84;10496541;28;20229;-63
2023/05/31 20:04:23;;;;;;;8.75;2.38;;;;;;;14.10;68.32;96869.38;10496707;28;20203;-64
2023/05/31 20:09:24;;;;;;;7.88;2.33;;;;;;;13.99;68.30;96865.34;10495880;28;20235;-64
2023/05/31 20:14:24;;;;;;;7.07;2.22;;;;;;;13.95;68.34;96866.72;10510844;28;20195;-63
2023/05/31 20:19:25;;;;;;;4.68;2.30;;;;;;;13.69;68.90;96869.63;10537866;28;20214;-64
2023/05/31 20:24:25;;;;;;;5.10;2.40;;;;;;;13.55;69.34;96869.38;10538064;28;20277;-64
2023/05/31 20:29:25;;;;;;;5.70;2.30;;;;;;;13.29;69.95;96879.28;10537822;28;20234;-64
2023/05/31 20:34:26;;;;;;;5.10;2.50;;;;;;;13.16;70.28;96864.88;10537600;28;20191;-66
2023/05/31 20:39:29;;;;;;;5.07;2.25;;;;;;;13.08;70.50;96871.94;10537631;28;20225;-66
2023/05/31 20:44:31;;;;;;;4.82;2.20;;;;;;;12.95;71.06;96869.84;10536891;28;20225;-66
2023/05/31 20:49:32;;;;;;;5.55;2.45;;;;;;;12.82;71.38;96865.13;10537187;28;20210;-65
2023/05/31 20:54:32;;;;;;;4.68;2.38;;;;;;;12.63;72.04;96869.75;10536294;28;20186;-65
2023/05/31 20:59:34;;;;;;;6.53;2.50;;;;;;;12.47;72.80;96867.13;10536587;28;20253;-65
2023/05/31 21:04:35;;;;;;;7.72;2.47;;;;;;;12.45;72.66;96869.91;10536422;28;20188;-65
2023/05/31 21:09:35;;;;;;;3.95;2.10;;;;;;;12.28;73.12;96868.25;10535659;28;20328;-65
2023/05/31 21:14:36;;;;;;;6.57;2.22;;;;;;;12.21;73.59;96875.16;10536297;28;20197;-65
2023/05/31 21:19:36;;;;;;;6.68;2.70;;;;;;;12.15;73.65;96883.69;10535750;28;20238;-63
2023/05/31 21:24:36;;;;;;;3.60;2.60;;;;;;;12.09;74.07;96875.44;10536027;28;20208;-65
2023/05/31 21:29:37;;;;;;;4.18;2.20;;;;;;;11.99;73.98;96884.47;10535683;28;20210;-64
2023/05/31 21:34:37;;;;;;;4.03;2.30;;;;;;;11.83;74.68;96875.53;10535440;28;20698;-64
2023/05/31 21:39:37;;;;;;;6.30;2.58;;;;;;;11.58;75.85;96885.16;10535991;28;20218;-66
2023/05/31 21:44:38;;;;;;;3.38;2.00;;;;;;;11.56;76.14;96887.94;10535252;28;20739;-65
2023/05/31 21:49:38;;;;;;;2.40;1.85;;;;;;;11.45;76.79;96884.75;10536205;28;20577;-65
2023/05/31 21:54:39;;;;;;;4.00;2.25;;;;;;;11.42;77.01;96885.88;10539546;28;20664;-65
2023/05/31 21:59:39;;;;;;;5.57;2.10;;;;;;;11.31;77.39;96886.97;10537326;28;20241;-64
2023/05/31 22:04:39;;;;;;;6.20;2.53;;;;;;;11.26;77.82;96891.88;10539295;28;20209;-65
2023/05/31 22:09:40;;;;;;;3.60;1.90;;;;;;;11.15;78.20;96892.13;10543208;28;20234;-65
2023/05/31 22:14:41;;;;;;;4.93;2.50;;;;;;;11.09;78.54;96898.00;10543391;28;20332;-65
2023/05/31 22:19:41;;;;;;;4.43;2.53;;;;;;;10.98;78.68;96899.94;10542970;28;20845;-65
2023/05/31 22:24:42;;;;;;;6.83;2.67;;;;;;;10.92;78.97;96903.16;10543139;28;20320;-64
2023/05/31 22:29:42;;;;;;;5.07;2.47;;;;;;;10.77;79.74;96902.09;10542611;28;20214;-65
2023/05/31 22:34:42;;;;;;;8.30;2.50;;;;;;;10.66;81.04;96901.34;10542646;28;20187;-64
2023/05/31 22:39:43;;;;;;;5.03;2.23;;;;;;;10.61;81.37;96911.47;10542303;28;20309;-65
2023/05/31 22:44:43;;;;;;;7.33;2.40;;;;;;;10.51;81.94;96910.72;10542138;28;20195;-65
2023/05/31 22:49:43;;;;;;;4.97;2.50;;;;;;;10.44;82.45;96912.28;10542056;28;20236;-65
2023/05/31 22:54:44;;;;;;;3.87;2.20;;;;;;;10.41;83.01;96904.72;10541736;28;20221;-64
2023/05/31 22:59:44;;;;;;;3.37;2.13;;;;;;;10.36;83.11;96910.41;10541690;28;20288;-65
2023/05/31 23:04:45;;;;;;;9.43;2.17;;;;;;;10.33;82.84;96911.53;10541407;28;20194;-65
2023/05/31 23:09:45;;;;;;;6.37;2.10;;;;;;;10.22;83.91;96905.69;10540909;28;20241;-64
2023/05/31 23:14:47;;;;;;;6.07;2.50;;;;;;;10.18;83.87;96902.53;10540702;28;20518;-65
2023/05/31 23:19:48;;;;;;;7.27;3.00;;;;;;;10.08;84.89;96907.03;10540748;28;20219;-64
2023/05/31 23:24:48;;;;;;;4.13;2.37;;;;;;;10.02;85.15;96907.63;10540460;28;20213;-65